Valencia, California
Current Conditions -  °F | °C
As of 1:51 PM on Monday 24 Nov 2014 (Local Time) from KVNY Reporting Station
Clear Clear  
Wind Chill: 77°   Ceiling: Unl
Heat Index: 77°   Visibility: 10mi
Dew Point:   Wind: 16mph
Humidity: 7%   Direction: 360°N
Pressure: 30.19"   Gusts: NA
Location:  34.44°N, 118.61°W
Report Text: KVNY 242151Z 36014KT 10SM CLR 25/M13 A3019 RMK AO2 SLP217 T02501128
Loading
Personal Weather Stations






























Interactive Weather Map New forecast layout! Learn more

10-Day Weather Forecast

Advertisements
Track Severe Weather on mobile